Flight Track Log - Related Links

Times and Time Zones

All times are in EDT time to prevent confusion due to time zone crossing. See the UAL4846 flight status page for this flight to view local times or setup timezone preferences in your user account.


Time Position Orientation Groundspeed Altitude Reporting Facility
EDT Latitude Longitude Course Direction KTS MPH feet Rate Location/Type
Mon 08:21:48 AM 43.1036 -77.6914 124° Southeast 138 159 1,300  Level Cleveland Center
Mon 08:22:55 AM 43.0681 -77.6928 182° South 163 188 2,500 1,228 Climbing Cleveland Center
Mon 08:23:55 AM 43.0481 -77.6369 116° Southeast 174 200 3,900 1,353 Climbing Cleveland Center
Mon 08:24:37 AM 43.0367 -77.6006 113° Southeast 173 199 4,800 1,574 Climbing Cleveland Center
Mon 08:24:56 AM 43.0297 -77.5783 113° Southeast 168 193 5,500 1,574 Climbing Cleveland Center
Mon 08:25:38 AM 43.0183 -77.5419 113° Southeast 182 209 6,400 1,426 Climbing Cleveland Center
Mon 08:26:00 AM 42.9261 -77.2355 124° Southeast  Level FlightAware Approximate
Mon 08:26:37 AM 43.0064 -77.4772 104° East 182 209 7,900  Level Cleveland Center
Mon 08:27:00 AM 42.8976 -77.1617 124° Southeast  Level FlightAware Approximate
Mon 08:27:37 AM 42.9942 -77.4125 104° East 182 209 9,200  Level Cleveland Center
Mon 08:29:37 AM 42.9572 -77.2867 112° Southeast 182 209 11,700 857 Climbing Cleveland Center
Mon 08:32:03 AM 42.8861 -77.1217 120° Southeast 209 241 13,000 379 Climbing New York Center
Mon 08:33:03 AM 42.8508 -77.0389 120° Southeast 235 270 13,000  Level New York Center
Mon 08:34:04 AM 42.8139 -76.9533 120° Southeast 255 293 13,000  Level New York Center
Mon 08:34:51 AM 42.7786 -76.8792 123° Southeast 260 299 13,000  Level Boston Center
Mon 08:35:51 AM 42.7439 -76.8058 123° Southeast 265 305 13,000  Level Boston Center
Mon 08:36:51 AM 42.7053 -76.7242 123° Southeast 265 305 13,000  Level Boston Center
Mon 08:37:51 AM 42.6689 -76.6367 119° Southeast 265 305 13,000  Level Boston Center
Mon 08:39:03 AM 42.6303 -76.5550 123° Southeast 265 305 13,000  Level Boston Center
Mon 08:40:03 AM 42.5858 -76.4533 121° Southeast 265 305 13,000  Level Boston Center
Mon 08:41:03 AM 42.5492 -76.3719 121° Southeast 265 305 13,000  Level Boston Center
Mon 08:42:03 AM 42.5103 -76.2878 122° Southeast 265 305 13,000  Level Boston Center
Mon 08:43:03 AM 42.4756 -76.2042 119° Southeast 265 305 13,000  Level Boston Center
Mon 08:44:03 AM 42.4364 -76.1231 123° Southeast 260 299 13,000  Level Boston Center
Mon 08:45:03 AM 42.3956 -76.0361 122° Southeast 266 306 13,000  Level Boston Center
Mon 08:46:03 AM 42.3606 -75.9556 120° Southeast 256 295 13,000  Level Boston Center
Mon 08:47:03 AM 42.3214 -75.8744 123° Southeast 262 302 13,000  Level Boston Center
Mon 08:48:03 AM 42.2864 -75.7883 119° Southeast 257 296 13,000  Level Boston Center
Mon 08:49:03 AM 42.2469 -75.7078 123° Southeast 262 302 13,000  Level Boston Center
Mon 08:50:03 AM 42.2078 -75.6217 122° Southeast 262 302 13,000  Level Boston Center
Mon 08:51:03 AM 42.1683 -75.5411 123° Southeast 262 302 13,000 50 Level Boston Center
Mon 08:52:03 AM 42.1289 -75.4581 123° Southeast 262 302 13,100 50 Climbing Boston Center
Mon 08:53:03 AM 42.0914 -75.3750 121° Southeast 262 302 13,100  Level Boston Center
Mon 08:54:03 AM 42.0539 -75.2922 121° Southeast 262 302 13,100 -50 Level Boston Center
Mon 08:55:03 AM 42.0208 -75.2042 117° Southeast 262 302 13,000 -50 Descending Boston Center
Mon 08:56:03 AM 41.9833 -75.1075 118° Southeast 257 296 13,000  Level Boston Center
Mon 08:57:03 AM 41.9539 -75.0281 116° Southeast 262 302 13,000 -300 Level Boston Center
Mon 08:58:03 AM 41.9100 -74.9425 125° Southeast 262 302 12,400 -800 Descending Boston Center
Mon 08:59:03 AM 41.8614 -74.8792 136° Southeast 267 307 11,400 -1,100 Descending Boston Center
Mon 09:00:03 AM 41.8047 -74.8019 135° Southeast 274 315 10,200 -1,100 Descending Boston Center
Mon 09:01:03 AM 41.7622 -74.7419 134° Southeast 258 297 9,200 -1,050 Descending Boston Center
Mon 09:02:03 AM 41.7094 -74.6647 132° Southeast 253 291 8,100 -600 Descending Boston Center
Mon 09:03:03 AM 41.6669 -74.6078 135° Southeast 248 285 8,000 -500 Descending Boston Center
Mon 09:04:03 AM 41.6053 -74.5556 148° Southeast 248 285 7,100 -950 Descending Boston Center
Mon 09:05:03 AM 41.5447 -74.5675 188° South 228 262 6,100 -550 Descending Boston Center
Mon 09:06:03 AM 41.4714 -74.5789 187° South 240 276 6,000 -40 Descending Boston Center
Mon 09:07:33 AM 41.3667 -74.6000 189° South 244 281 6,000  Level New York TRACON
Mon 09:08:33 AM 41.3000 -74.6333 201° Southwest 244 281 6,000  Level New York TRACON
Mon 09:09:33 AM 41.2333 -74.6167 169° South 238 274 6,000  Level New York TRACON
Mon 09:10:27 AM 41.1833 -74.6000 166° South 237 273 6,000  Level New York TRACON
Mon 09:11:27 AM 41.1167 -74.5833 169° South 235 270 6,000  Level New York TRACON
Mon 09:12:27 AM 41.0500 -74.5667 169° South 234 269 6,000  Level New York TRACON
Mon 09:13:27 AM 40.9833 -74.5500 169° South 234 269 6,000  Level New York TRACON
Mon 09:14:27 AM 40.9167 -74.5333 169° South 234 269 6,000  Level New York TRACON
Mon 09:15:27 AM 40.8667 -74.5167 166° South 234 269 6,000  Level New York TRACON
Mon 09:16:27 AM 40.8000 -74.5167 180° South 234 269 6,000  Level New York TRACON
Mon 09:17:27 AM 40.7333 -74.5167 180° South 236 272 6,000 -300 Level New York TRACON
Mon 09:18:27 AM 40.6667 -74.5167 180° South 240 276 5,400 -526 Descending New York TRACON
Mon 09:19:21 AM 40.6000 -74.5167 180° South 230 265 5,000 -211 Descending New York TRACON
Mon 09:20:21 AM 40.5333 -74.5167 180° South 232 267 5,000  Level New York TRACON
Mon 09:21:27 AM 40.4667 -74.5000 169° South 235 270 5,000 -550 Level New York TRACON
Mon 09:22:21 AM 40.4500 -74.4500 114° Southeast 217 250 3,900 -1,053 Descending New York TRACON
Mon 09:23:21 AM 40.4667 -74.3833 72° East 198 228 3,000 -429 Descending New York TRACON
Mon 09:24:27 AM 40.5000 -74.3167 57° Northeast 190 219 3,000  Level New York TRACON
Mon 09:25:27 AM 40.5333 -74.2667 49° Northeast 176 203 3,000 -263 Level New York TRACON
Mon 09:26:21 AM 40.5667 -74.2333 37° Northeast 176 203 2,500 -789 Descending New York TRACON
Mon 09:27:21 AM 40.6167 -74.2167 14° North 184 212 1,500 -950 Descending New York TRACON
Mon 09:28:21 AM 40.6500 -74.1833 37° Northeast 135 155 600 -900 Descending New York TRACON

Login

Don't have an account? Register now (free) for customized features, flight alerts, and more!